createdAt,value
2022-12-14T00:01:45.142Z,22.90
2022-12-14T00:04:16.600Z,24.70
2022-12-14T00:06:43.651Z,25.20
2022-12-14T00:09:10.699Z,25.37
2022-12-14T00:11:37.890Z,25.57
2022-12-14T00:14:05.719Z,26.37
2022-12-14T00:16:35.277Z,25.90
2022-12-14T00:19:04.490Z,29.30
2022-12-14T00:21:31.627Z,29.37
2022-12-14T00:23:59.744Z,30.80
2022-12-14T00:26:31.457Z,25.33
2022-12-14T00:29:01.210Z,28.67
2022-12-14T00:31:29.595Z,30.03
2022-12-14T00:33:56.787Z,28.73
2022-12-14T00:36:24.410Z,28.77
2022-12-14T00:38:51.574Z,27.30
2022-12-14T00:41:18.936Z,37.93
2022-12-14T00:43:49.163Z,27.70
2022-12-14T00:46:17.877Z,28.97
2022-12-14T00:48:46.206Z,29.73
2022-12-14T00:51:15.096Z,28.97
2022-12-14T00:53:44.189Z,30.67
2022-12-14T00:56:11.628Z,28.63
2022-12-14T00:58:38.701Z,30.50
2022-12-14T01:01:12.376Z,29.93
2022-12-14T01:03:39.750Z,27.37
2022-12-14T01:06:14.036Z,26.43
2022-12-14T01:08:41.288Z,27.30
2022-12-14T01:11:10.223Z,29.33
2022-12-14T01:13:39.283Z,30.87
2022-12-14T01:16:15.027Z,28.33
2022-12-14T01:18:43.725Z,25.73
2022-12-14T01:21:20.832Z,28.23
2022-12-14T01:23:52.409Z,26.23
2022-12-14T01:26:20.423Z,26.10
2022-12-14T01:28:49.047Z,28.67
2022-12-14T01:31:19.666Z,25.40
2022-12-14T01:33:48.155Z,21.23
2022-12-14T01:36:19.252Z,20.00
2022-12-14T01:38:47.161Z,23.97
2022-12-14T01:41:44.281Z,27.17
2022-12-14T01:44:11.311Z,25.47
2022-12-14T01:46:42.032Z,23.93
2022-12-14T01:49:15.244Z,22.50
2022-12-14T01:51:50.349Z,23.50
2022-12-14T01:54:17.478Z,18.33
2022-12-14T01:56:46.569Z,24.57
2022-12-14T01:59:25.902Z,25.03
2022-12-14T02:01:54.238Z,21.67
2022-12-14T02:04:21.923Z,22.17
2022-12-14T02:06:54.121Z,19.30
2022-12-14T02:09:31.815Z,18.47
2022-12-14T02:12:14.209Z,21.20
2022-12-14T02:14:41.924Z,19.73
2022-12-14T02:17:11.514Z,24.20
2022-12-14T02:19:40.060Z,20.00
2022-12-14T02:22:25.184Z,21.33
2022-12-14T02:25:23.291Z,22.33
2022-12-14T02:28:17.327Z,19.00
2022-12-14T02:30:58.657Z,14.57
2022-12-14T02:34:39.933Z,19.20
2022-12-14T02:37:49.966Z,15.70
2022-12-14T02:40:28.635Z,19.20
2022-12-14T02:44:00.386Z,31.73
2022-12-14T02:46:52.225Z,18.10
2022-12-14T02:49:53.448Z,18.47
2022-12-14T02:52:52.797Z,21.53
2022-12-14T02:55:39.174Z,15.33
2022-12-14T02:58:17.979Z,17.00
2022-12-14T03:00:45.539Z,22.00
2022-12-14T03:03:12.752Z,18.07
2022-12-14T03:05:39.922Z,20.90
2022-12-14T03:08:12.494Z,18.03
2022-12-14T03:10:53.195Z,22.63
2022-12-14T03:13:54.321Z,19.10
2022-12-14T03:16:33.711Z,23.13
2022-12-14T03:19:15.051Z,22.60
2022-12-14T03:21:50.996Z,19.23
2022-12-14T03:24:27.429Z,18.43
2022-12-14T03:27:05.615Z,21.23
2022-12-14T03:29:41.357Z,19.87
2022-12-14T03:32:23.044Z,16.97
2022-12-14T03:34:59.611Z,19.70
2022-12-14T03:37:58.929Z,19.20
2022-12-14T03:40:42.758Z,18.60
2022-12-14T03:43:17.582Z,17.10
2022-12-14T03:45:52.850Z,19.57
2022-12-14T03:48:38.081Z,18.60
2022-12-14T03:51:18.503Z,22.87
2022-12-14T03:54:21.936Z,19.30
2022-12-14T03:57:08.048Z,19.20
2022-12-14T03:59:54.194Z,19.43
2022-12-14T04:02:40.795Z,22.00
2022-12-14T04:05:41.760Z,18.77
2022-12-14T04:09:05.825Z,19.43
2022-12-14T04:12:02.408Z,20.13
2022-12-14T04:14:54.730Z,17.20
2022-12-14T04:17:48.620Z,20.33
2022-12-14T04:20:46.248Z,20.20
2022-12-14T04:23:41.868Z,19.57
2022-12-14T04:26:13.841Z,18.13
2022-12-14T04:29:09.492Z,21.13
2022-12-14T04:31:39.682Z,18.70
2022-12-14T04:34:10.744Z,18.67
2022-12-14T04:36:42.330Z,23.47
2022-12-14T04:39:31.548Z,19.47
2022-12-14T04:42:03.013Z,17.97
2022-12-14T04:44:37.947Z,17.17
2022-12-14T04:47:09.964Z,18.53
2022-12-14T04:49:53.476Z,21.00
2022-12-14T04:52:33.237Z,22.33
2022-12-14T04:55:21.897Z,19.07
2022-12-14T04:57:59.304Z,21.93
2022-12-14T05:00:27.528Z,19.93
2022-12-14T05:03:17.200Z,16.80
2022-12-14T05:06:06.514Z,20.33
2022-12-14T05:09:08.893Z,25.63
2022-12-14T05:11:55.671Z,20.20
2022-12-14T05:14:49.803Z,19.40
2022-12-14T05:17:17.344Z,22.33
2022-12-14T05:19:49.856Z,19.03
2022-12-14T05:22:18.430Z,19.70
2022-12-14T05:24:45.461Z,23.00
2022-12-14T05:27:12.955Z,18.87
2022-12-14T05:29:40.123Z,25.10
2022-12-14T05:32:09.932Z,22.70
2022-12-14T05:34:37.004Z,18.53
2022-12-14T05:37:04.237Z,25.93
2022-12-14T05:39:31.439Z,23.37
2022-12-14T05:41:58.626Z,20.70
2022-12-14T05:44:25.968Z,18.17
2022-12-14T05:46:53.989Z,20.30
2022-12-14T05:49:21.158Z,21.17
2022-12-14T05:51:49.445Z,21.17
2022-12-14T05:54:16.737Z,25.00
2022-12-14T05:56:44.001Z,19.43
2022-12-14T05:59:15.606Z,21.53
2022-12-14T06:01:44.251Z,19.70
2022-12-14T06:04:15.799Z,22.97
2022-12-14T06:06:43.426Z,21.27
2022-12-14T06:09:15.715Z,16.90
2022-12-14T06:11:43.813Z,19.37
2022-12-14T06:14:11.826Z,19.90
2022-12-14T06:16:44.806Z,20.17
2022-12-14T06:19:13.555Z,21.50
2022-12-14T06:21:42.752Z,18.13
2022-12-14T06:24:12.501Z,18.57
2022-12-14T06:26:42.807Z,18.83
2022-12-14T06:29:21.116Z,19.63
2022-12-14T06:31:49.509Z,19.20
2022-12-14T06:34:18.031Z,23.40
2022-12-14T06:36:47.032Z,18.57
2022-12-14T06:39:16.814Z,16.70
2022-12-14T06:41:44.501Z,18.40
2022-12-14T06:44:14.502Z,20.80
2022-12-14T06:46:42.211Z,18.40
2022-12-14T06:49:16.440Z,18.90
2022-12-14T06:51:44.032Z,19.07
2022-12-14T06:54:12.712Z,17.60
2022-12-14T06:56:41.608Z,18.10
2022-12-14T06:59:09.300Z,16.87
2022-12-14T07:01:38.362Z,18.17
2022-12-14T07:04:06.761Z,21.17
2022-12-14T07:06:38.497Z,20.20
2022-12-14T07:09:08.035Z,17.70
2022-12-14T07:11:35.292Z,18.43
2022-12-14T07:14:06.166Z,18.63
2022-12-14T07:16:35.744Z,19.90
2022-12-14T07:19:03.980Z,20.73
2022-12-14T07:21:31.133Z,16.43
2022-12-14T07:24:01.299Z,27.20
2022-12-14T07:26:29.234Z,19.13
2022-12-14T07:29:00.617Z,22.20
2022-12-14T07:31:29.742Z,16.27
2022-12-14T07:34:00.423Z,15.60
2022-12-14T07:36:29.893Z,17.77
2022-12-14T07:38:57.568Z,18.87
2022-12-14T07:41:31.257Z,18.40
2022-12-14T07:44:00.932Z,16.17
2022-12-14T07:46:30.711Z,17.10
2022-12-14T07:48:59.255Z,16.37
2022-12-14T07:51:36.257Z,17.80
2022-12-14T07:54:05.964Z,17.30
2022-12-14T07:56:37.027Z,18.50
2022-12-14T07:59:06.720Z,19.23
2022-12-14T08:01:36.394Z,17.73
2022-12-14T08:04:10.576Z,16.07
2022-12-14T08:06:38.907Z,15.20
2022-12-14T08:09:07.660Z,21.27
2022-12-14T08:11:35.349Z,17.13
2022-12-14T08:14:10.941Z,21.00
2022-12-14T08:16:38.183Z,15.83
2022-12-14T08:19:05.507Z,17.20
2022-12-14T08:21:33.025Z,17.57
2022-12-14T08:24:00.451Z,17.17
2022-12-14T08:26:34.893Z,16.27
2022-12-14T08:29:03.769Z,18.20
2022-12-14T08:31:32.062Z,16.30
2022-12-14T08:34:01.395Z,17.43
2022-12-14T08:36:32.860Z,16.23
2022-12-14T08:39:09.998Z,19.23
2022-12-14T08:41:37.368Z,17.10
2022-12-14T08:44:05.125Z,13.67
2022-12-14T08:46:34.925Z,16.67
2022-12-14T08:49:02.258Z,21.73
2022-12-14T08:51:29.905Z,20.10
2022-12-14T08:53:58.376Z,18.23
2022-12-14T08:56:28.199Z,25.63
2022-12-14T08:58:56.627Z,18.80
2022-12-14T09:01:32.854Z,19.73
2022-12-14T09:04:08.012Z,17.10
2022-12-14T09:06:39.105Z,19.40
2022-12-14T09:09:15.605Z,20.33
2022-12-14T09:11:44.556Z,17.67
2022-12-14T09:14:12.402Z,17.00
2022-12-14T09:16:40.384Z,16.30
2022-12-14T09:19:07.736Z,20.03
2022-12-14T09:21:35.076Z,19.03
2022-12-14T09:24:02.184Z,17.57
2022-12-14T09:26:29.978Z,18.17
2022-12-14T09:28:58.255Z,22.87
2022-12-14T09:31:28.011Z,19.80
2022-12-14T09:33:56.250Z,16.10
2022-12-14T09:36:28.448Z,21.47
2022-12-14T09:38:57.858Z,16.10
2022-12-14T09:41:36.487Z,18.27
2022-12-14T09:44:27.993Z,21.00
2022-12-14T09:47:47.037Z,18.30
2022-12-14T09:50:20.769Z,23.67
2022-12-14T09:52:53.390Z,17.50
2022-12-14T09:55:22.962Z,19.97
2022-12-14T09:58:23.578Z,23.83
2022-12-14T10:01:43.564Z,20.13
2022-12-14T10:04:16.592Z,19.60
2022-12-14T10:07:06.050Z,23.33
2022-12-14T10:10:02.714Z,20.37
2022-12-14T10:13:01.917Z,16.87
2022-12-14T10:15:53.690Z,20.03
2022-12-14T10:19:01.979Z,20.97
2022-12-14T10:21:47.396Z,21.50
2022-12-14T10:24:23.231Z,20.00
2022-12-14T10:26:55.810Z,20.30
2022-12-14T10:29:25.942Z,18.87
2022-12-14T10:32:02.401Z,21.87
2022-12-14T10:34:31.487Z,18.77
2022-12-14T10:37:25.811Z,20.57
2022-12-14T10:40:19.769Z,23.30
2022-12-14T10:43:21.046Z,18.47
2022-12-14T10:46:19.362Z,19.40
2022-12-14T10:49:32.953Z,18.00
2022-12-14T10:52:12.418Z,20.27
2022-12-14T10:54:47.093Z,20.30
2022-12-14T10:57:20.113Z,21.30
2022-12-14T11:00:07.339Z,17.33
2022-12-14T11:02:41.266Z,19.30
2022-12-14T11:05:41.488Z,22.13
2022-12-14T11:08:09.347Z,19.10
2022-12-14T11:10:39.751Z,22.17
2022-12-14T11:13:19.880Z,23.27
2022-12-14T11:15:51.032Z,20.10
2022-12-14T11:18:18.180Z,20.47
2022-12-14T11:20:52.735Z,16.83
2022-12-14T11:23:29.969Z,19.43
2022-12-14T11:26:03.821Z,18.93
2022-12-14T11:28:50.483Z,21.20
2022-12-14T11:31:20.625Z,21.50
2022-12-14T11:33:51.093Z,20.90
2022-12-14T11:36:38.805Z,21.67
2022-12-14T11:39:20.880Z,21.67
2022-12-14T11:42:01.382Z,22.47
2022-12-14T11:44:36.443Z,18.57
2022-12-14T11:47:13.699Z,20.97
2022-12-14T11:49:41.057Z,24.93
2022-12-14T11:52:46.092Z,26.87
2022-12-14T11:55:26.253Z,20.83
2022-12-14T11:57:57.907Z,21.97
2022-12-14T12:00:47.738Z,20.37
2022-12-14T12:03:26.446Z,19.70
2022-12-14T12:05:59.861Z,19.27
2022-12-14T12:08:30.112Z,22.37
2022-12-14T12:11:02.543Z,22.80
2022-12-14T12:13:41.091Z,21.90
2022-12-14T12:16:14.884Z,21.10
2022-12-14T12:18:56.319Z,20.73
2022-12-14T12:21:30.248Z,22.63
2022-12-14T12:24:26.348Z,18.90
2022-12-14T12:26:58.737Z,22.90
2022-12-14T12:29:45.580Z,22.23
2022-12-14T12:32:50.518Z,19.23
2022-12-14T12:35:36.774Z,22.97
2022-12-14T12:38:13.894Z,22.60
2022-12-14T12:41:01.268Z,22.80
2022-12-14T12:43:42.448Z,28.40
2022-12-14T12:46:18.617Z,21.47
2022-12-14T12:48:53.850Z,25.27
2022-12-14T12:51:27.168Z,28.70
2022-12-14T12:54:06.293Z,23.53
2022-12-14T12:56:48.197Z,27.20
2022-12-14T12:59:35.627Z,23.50
2022-12-14T13:02:30.998Z,27.87
2022-12-14T13:05:29.042Z,24.37
2022-12-14T13:07:57.464Z,19.80
2022-12-14T13:10:42.047Z,26.77
2022-12-14T13:13:22.806Z,22.23
2022-12-14T13:15:54.209Z,24.43
2022-12-14T13:18:49.253Z,26.60
2022-12-14T13:21:35.267Z,26.23
2022-12-14T13:24:18.010Z,23.23
2022-12-14T13:27:17.671Z,24.87
2022-12-14T13:29:47.833Z,26.80
2022-12-14T13:32:45.564Z,27.07
2022-12-14T13:35:36.863Z,24.73
2022-12-14T13:38:35.235Z,27.00
2022-12-14T13:41:50.778Z,28.80
2022-12-14T13:44:41.989Z,31.97
2022-12-14T13:47:20.282Z,28.50
2022-12-14T13:50:34.765Z,25.03
2022-12-14T13:52:48.142Z,30.63
2022-12-14T13:55:39.323Z,27.47
2022-12-14T13:58:35.836Z,25.47
2022-12-14T14:01:36.710Z,22.23
2022-12-14T14:04:16.104Z,35.80
2022-12-14T14:06:45.387Z,30.33
2022-12-14T14:09:33.591Z,29.97
2022-12-14T14:12:04.471Z,28.97
2022-12-14T14:14:47.848Z,30.97
2022-12-14T14:17:41.914Z,32.70
2022-12-14T14:20:31.008Z,32.13
2022-12-14T14:23:16.275Z,28.70
2022-12-14T14:25:51.915Z,30.30
2022-12-14T14:28:23.216Z,30.47
2022-12-14T14:30:59.781Z,36.13
2022-12-14T14:33:48.396Z,30.63
2022-12-14T14:36:35.233Z,31.50
2022-12-14T14:42:25.830Z,35.53
2022-12-14T14:44:57.440Z,26.07
2022-12-14T14:47:35.971Z,28.63
2022-12-14T14:50:22.140Z,27.90
2022-12-14T14:53:18.374Z,34.90
2022-12-14T14:56:00.703Z,37.60
2022-12-14T14:58:38.428Z,34.13
2022-12-14T15:01:16.138Z,30.03
2022-12-14T15:04:06.662Z,32.17
2022-12-14T15:06:41.112Z,29.17
2022-12-14T15:09:30.996Z,29.43
2022-12-14T15:12:07.066Z,30.93
2022-12-14T15:14:48.219Z,27.40
2022-12-14T15:17:24.424Z,28.30
2022-12-14T15:19:59.916Z,27.30
2022-12-14T15:22:43.609Z,28.33
2022-12-14T15:25:23.774Z,27.30
2022-12-14T15:27:52.177Z,31.97
2022-12-14T15:30:27.765Z,34.70
2022-12-14T15:33:01.749Z,33.43
2022-12-14T15:35:42.795Z,36.23
2022-12-14T15:38:20.628Z,33.90
2022-12-14T15:40:59.965Z,37.10
2022-12-14T15:43:28.334Z,39.93
2022-12-14T15:46:04.627Z,32.77
2022-12-14T15:48:35.063Z,35.03
2022-12-14T15:51:06.556Z,33.87
2022-12-14T15:53:49.854Z,33.30
2022-12-14T15:56:32.853Z,39.00
2022-12-14T15:59:04.287Z,34.63
2022-12-14T16:01:54.406Z,34.47
2022-12-14T16:04:27.890Z,36.53
2022-12-14T16:07:09.152Z,38.50
2022-12-14T16:09:50.128Z,36.50
2022-12-14T16:12:45.420Z,39.20
2022-12-14T16:15:29.495Z,40.83
2022-12-14T16:18:02.230Z,34.97
2022-12-14T16:20:34.475Z,38.97
2022-12-14T16:23:13.140Z,37.77
2022-12-14T16:26:15.631Z,37.07
2022-12-14T16:28:42.797Z,39.30
2022-12-14T16:31:22.957Z,39.60
2022-12-14T16:34:15.015Z,36.17
2022-12-14T16:36:48.207Z,37.43
2022-12-14T16:39:24.249Z,40.20
2022-12-14T16:42:02.777Z,37.93
2022-12-14T16:44:32.368Z,42.37
2022-12-14T16:47:05.300Z,50.70
2022-12-14T16:49:41.406Z,50.30
2022-12-14T16:52:30.500Z,48.73
2022-12-14T16:55:17.105Z,50.73
2022-12-14T16:57:58.571Z,46.77
2022-12-14T17:00:36.205Z,42.60
2022-12-14T17:03:17.645Z,46.93
2022-12-14T17:05:54.435Z,49.00
2022-12-14T17:08:21.789Z,40.63
2022-12-14T17:10:49.069Z,42.00
2022-12-14T17:13:16.312Z,45.23
2022-12-14T17:16:01.887Z,47.10
2022-12-14T17:18:39.724Z,43.20
2022-12-14T17:21:10.669Z,56.57
2022-12-14T17:23:40.509Z,47.67
2022-12-14T17:26:29.373Z,44.17
2022-12-14T17:28:57.258Z,46.57
2022-12-14T17:31:27.315Z,43.87
2022-12-14T17:33:56.679Z,39.60
2022-12-14T17:36:24.518Z,45.57
2022-12-14T17:38:52.187Z,40.70
2022-12-14T17:41:26.686Z,46.13
2022-12-14T17:43:58.845Z,39.97
2022-12-14T17:46:26.739Z,44.17
2022-12-14T17:48:54.047Z,47.63
2022-12-14T17:51:30.093Z,39.27
2022-12-14T17:53:59.547Z,40.97
2022-12-14T17:56:26.775Z,44.70
2022-12-14T17:58:53.885Z,44.10
2022-12-14T18:01:25.731Z,40.63
2022-12-14T18:03:53.153Z,48.13
2022-12-14T18:06:20.245Z,41.40
2022-12-14T18:08:48.951Z,46.60
2022-12-14T18:11:22.021Z,49.13
2022-12-14T18:13:49.653Z,63.70
2022-12-14T18:16:22.100Z,52.97
2022-12-14T18:18:49.784Z,51.07
2022-12-14T18:21:29.545Z,49.97
2022-12-14T18:23:57.042Z,49.63
2022-12-14T18:26:26.977Z,48.60
2022-12-14T18:28:55.455Z,58.57
2022-12-14T18:31:36.084Z,53.33
2022-12-14T18:34:04.804Z,53.83
2022-12-14T18:36:32.084Z,55.23
2022-12-14T18:38:59.510Z,54.67
2022-12-14T18:41:27.594Z,52.43
2022-12-14T18:43:55.944Z,55.80
2022-12-14T18:46:24.250Z,59.97
2022-12-14T18:48:51.448Z,54.83
2022-12-14T18:51:23.571Z,54.40
2022-12-14T18:53:51.567Z,53.30
2022-12-14T18:56:19.663Z,56.00
2022-12-14T18:58:47.533Z,53.73
2022-12-14T19:01:19.484Z,59.93
2022-12-14T19:03:47.535Z,60.20
2022-12-14T19:06:43.630Z,57.43
2022-12-14T19:09:05.331Z,59.60
2022-12-14T19:11:38.973Z,71.67
2022-12-14T19:14:06.915Z,58.80
2022-12-14T19:16:34.378Z,61.07
2022-12-14T19:19:01.634Z,56.40
2022-12-14T19:21:29.805Z,53.10
2022-12-14T19:23:59.510Z,60.37
2022-12-14T19:26:28.595Z,48.40
2022-12-14T19:28:56.262Z,46.57
2022-12-14T19:31:23.510Z,50.83
2022-12-14T19:33:50.977Z,54.47
2022-12-14T19:36:18.371Z,53.33
2022-12-14T19:38:49.595Z,53.33
2022-12-14T19:41:20.399Z,44.83
2022-12-14T19:43:48.431Z,47.43
2022-12-14T19:46:16.424Z,41.90
2022-12-14T19:48:44.354Z,45.83
2022-12-14T19:51:13.314Z,49.07
2022-12-14T19:53:42.940Z,45.90
2022-12-14T19:56:10.929Z,43.57
2022-12-14T19:58:38.161Z,44.83
2022-12-14T20:01:10.924Z,48.23
2022-12-14T20:03:41.980Z,40.20
2022-12-14T20:06:10.143Z,46.33
2022-12-14T20:08:37.689Z,41.70
2022-12-14T20:11:10.993Z,53.60
2022-12-14T20:13:38.672Z,49.70
2022-12-14T20:16:06.279Z,46.40
2022-12-14T20:18:33.782Z,43.50
2022-12-14T20:21:06.869Z,40.23
2022-12-14T20:23:36.271Z,38.43
2022-12-14T20:26:14.887Z,37.77
2022-12-14T20:28:42.474Z,41.60
2022-12-14T20:31:15.084Z,37.67
2022-12-14T20:33:45.116Z,45.70
2022-12-14T20:36:13.550Z,43.87
2022-12-14T20:38:41.091Z,42.50
2022-12-14T20:41:14.520Z,47.13
2022-12-14T20:43:44.912Z,48.13
2022-12-14T20:46:34.462Z,44.40
2022-12-14T20:49:09.398Z,48.67
2022-12-14T20:51:39.353Z,45.83
2022-12-14T20:54:10.882Z,52.10
2022-12-14T20:56:39.058Z,48.10
2022-12-14T20:59:07.911Z,47.37
2022-12-14T21:01:38.162Z,44.30
2022-12-14T21:04:07.463Z,49.97
2022-12-14T21:06:40.676Z,44.27
2022-12-14T21:09:12.105Z,42.33
2022-12-14T21:12:08.014Z,44.00
2022-12-14T21:14:44.772Z,44.07
2022-12-14T21:17:12.016Z,44.57
2022-12-14T21:19:40.080Z,48.00
2022-12-14T21:22:12.585Z,53.87
2022-12-14T21:27:30.273Z,46.00
2022-12-14T21:29:57.401Z,50.00
2022-12-14T21:32:24.585Z,47.40
2022-12-14T21:34:52.086Z,51.47
2022-12-14T21:37:20.372Z,42.57
2022-12-14T21:39:54.535Z,42.67
2022-12-14T21:42:25.971Z,48.57
2022-12-14T21:44:54.444Z,44.27
2022-12-14T21:47:28.400Z,48.53
2022-12-14T21:49:56.486Z,46.57
2022-12-14T21:52:27.251Z,44.10
2022-12-14T21:54:54.784Z,46.83
2022-12-14T21:57:49.823Z,48.10
2022-12-14T22:00:18.284Z,41.93
2022-12-14T22:02:45.648Z,45.50
2022-12-14T22:05:13.218Z,43.83
2022-12-14T22:07:40.485Z,49.40
2022-12-14T22:10:08.302Z,46.47
2022-12-14T22:12:35.501Z,44.33
2022-12-14T22:15:02.719Z,56.80
2022-12-14T22:17:29.787Z,43.63
2022-12-14T22:19:56.865Z,44.03
2022-12-14T22:22:23.963Z,52.87
2022-12-14T22:24:51.379Z,43.20
2022-12-14T22:27:19.681Z,53.37
2022-12-14T22:29:46.927Z,53.57
2022-12-14T22:32:14.983Z,43.03
2022-12-14T22:34:42.374Z,43.67
2022-12-14T22:37:09.880Z,45.80
2022-12-14T22:39:37.020Z,45.33
2022-12-14T22:42:04.232Z,40.13
2022-12-14T22:44:31.261Z,44.07
2022-12-14T22:46:58.445Z,45.27
2022-12-14T22:49:25.483Z,47.03
2022-12-14T22:51:52.704Z,44.87
2022-12-14T22:54:27.912Z,51.70
2022-12-14T22:56:58.386Z,42.33
2022-12-14T22:59:43.459Z,50.63
2022-12-14T23:02:10.800Z,50.10
2022-12-14T23:04:39.096Z,40.80
2022-12-14T23:07:06.679Z,44.77
2022-12-14T23:09:53.205Z,45.60
2022-12-14T23:12:39.152Z,44.37
2022-12-14T23:15:24.994Z,38.43
2022-12-14T23:18:18.957Z,47.33
2022-12-14T23:21:04.463Z,44.53
2022-12-14T23:23:50.352Z,46.07
2022-12-14T23:26:36.334Z,41.37
2022-12-14T23:29:22.270Z,42.57
2022-12-14T23:32:07.995Z,45.80
2022-12-14T23:34:53.586Z,48.60
2022-12-14T23:37:38.985Z,46.50
2022-12-14T23:40:25.582Z,50.50
2022-12-14T23:43:11.589Z,50.40
2022-12-14T23:45:56.991Z,44.40
2022-12-14T23:48:42.859Z,54.10
2022-12-14T23:51:28.284Z,55.93
2022-12-14T23:54:13.716Z,40.37
2022-12-14T23:56:59.238Z,42.30
2022-12-14T23:59:44.627Z,51.03
